sensor_id;sensor_type;location;lat;lon;timestamp;P1;durP1;ratioP1;P2;durP2;ratioP2
10851;SDS011;5479;52.046;6.314;2022-12-18T00:01:26;36.50;;;19.50;;
10851;SDS011;5479;52.046;6.314;2022-12-18T00:03:57;38.90;;;18.90;;
10851;SDS011;5479;52.046;6.314;2022-12-18T00:06:26;34.67;;;18.70;;
10851;SDS011;5479;52.046;6.314;2022-12-18T00:08:56;40.37;;;18.97;;
10851;SDS011;5479;52.046;6.314;2022-12-18T00:11:25;36.97;;;19.73;;
10851;SDS011;5479;52.046;6.314;2022-12-18T00:13:56;36.27;;;18.90;;
10851;SDS011;5479;52.046;6.314;2022-12-18T00:16:26;39.30;;;18.80;;
10851;SDS011;5479;52.046;6.314;2022-12-18T00:18:56;38.93;;;19.70;;
10851;SDS011;5479;52.046;6.314;2022-12-18T00:21:25;36.50;;;19.33;;
10851;SDS011;5479;52.046;6.314;2022-12-18T00:23:54;34.20;;;18.83;;
10851;SDS011;5479;52.046;6.314;2022-12-18T00:26:23;36.40;;;18.30;;
10851;SDS011;5479;52.046;6.314;2022-12-18T00:28:53;35.03;;;19.23;;
10851;SDS011;5479;52.046;6.314;2022-12-18T00:31:23;37.47;;;19.43;;
10851;SDS011;5479;52.046;6.314;2022-12-18T00:33:53;36.27;;;18.43;;
10851;SDS011;5479;52.046;6.314;2022-12-18T00:36:22;35.07;;;18.17;;
10851;SDS011;5479;52.046;6.314;2022-12-18T00:38:52;32.77;;;18.80;;
10851;SDS011;5479;52.046;6.314;2022-12-18T00:41:22;39.87;;;18.47;;
10851;SDS011;5479;52.046;6.314;2022-12-18T00:44:08;37.27;;;18.60;;
10851;SDS011;5479;52.046;6.314;2022-12-18T00:46:39;30.13;;;17.73;;
10851;SDS011;5479;52.046;6.314;2022-12-18T00:49:07;36.17;;;17.33;;
10851;SDS011;5479;52.046;6.314;2022-12-18T00:51:35;43.87;;;21.27;;
10851;SDS011;5479;52.046;6.314;2022-12-18T00:54:03;38.70;;;18.70;;
10851;SDS011;5479;52.046;6.314;2022-12-18T00:56:31;34.70;;;18.43;;
10851;SDS011;5479;52.046;6.314;2022-12-18T00:58:59;34.60;;;17.93;;
10851;SDS011;5479;52.046;6.314;2022-12-18T01:01:27;34.17;;;18.83;;
10851;SDS011;5479;52.046;6.314;2022-12-18T01:03:56;31.77;;;17.80;;
10851;SDS011;5479;52.046;6.314;2022-12-18T01:06:25;33.30;;;17.53;;
10851;SDS011;5479;52.046;6.314;2022-12-18T01:08:54;35.10;;;17.53;;
10851;SDS011;5479;52.046;6.314;2022-12-18T01:11:22;27.63;;;16.03;;
10851;SDS011;5479;52.046;6.314;2022-12-18T01:13:51;30.90;;;17.70;;
10851;SDS011;5479;52.046;6.314;2022-12-18T01:16:19;28.03;;;16.47;;
10851;SDS011;5479;52.046;6.314;2022-12-18T01:18:47;31.53;;;17.13;;
10851;SDS011;5479;52.046;6.314;2022-12-18T01:21:20;31.07;;;16.13;;
10851;SDS011;5479;52.046;6.314;2022-12-18T01:23:51;31.80;;;16.80;;
10851;SDS011;5479;52.046;6.314;2022-12-18T01:26:19;32.90;;;16.13;;
10851;SDS011;5479;52.046;6.314;2022-12-18T01:28:47;32.93;;;17.23;;
10851;SDS011;5479;52.046;6.314;2022-12-18T01:31:17;30.37;;;16.30;;
10851;SDS011;5479;52.046;6.314;2022-12-18T01:33:48;26.60;;;15.77;;
10851;SDS011;5479;52.046;6.314;2022-12-18T01:36:17;30.87;;;17.10;;
10851;SDS011;5479;52.046;6.314;2022-12-18T01:38:48;27.60;;;15.90;;
10851;SDS011;5479;52.046;6.314;2022-12-18T01:41:17;32.33;;;15.97;;
10851;SDS011;5479;52.046;6.314;2022-12-18T01:43:49;30.90;;;17.40;;
10851;SDS011;5479;52.046;6.314;2022-12-18T01:46:20;30.33;;;15.47;;
10851;SDS011;5479;52.046;6.314;2022-12-18T01:48:53;29.33;;;15.50;;
10851;SDS011;5479;52.046;6.314;2022-12-18T01:51:25;27.03;;;15.60;;
10851;SDS011;5479;52.046;6.314;2022-12-18T01:53:54;31.17;;;16.50;;
10851;SDS011;5479;52.046;6.314;2022-12-18T01:56:23;30.67;;;15.63;;
10851;SDS011;5479;52.046;6.314;2022-12-18T01:58:52;24.67;;;15.07;;
10851;SDS011;5479;52.046;6.314;2022-12-18T02:01:24;28.33;;;15.13;;
10851;SDS011;5479;52.046;6.314;2022-12-18T02:03:53;28.83;;;15.17;;
10851;SDS011;5479;52.046;6.314;2022-12-18T02:06:23;25.20;;;15.20;;
10851;SDS011;5479;52.046;6.314;2022-12-18T02:09:02;27.80;;;15.47;;
10851;SDS011;5479;52.046;6.314;2022-12-18T02:11:40;28.03;;;15.90;;
10851;SDS011;5479;52.046;6.314;2022-12-18T02:14:21;21.47;;;14.00;;
10851;SDS011;5479;52.046;6.314;2022-12-18T02:16:57;21.83;;;13.50;;
10851;SDS011;5479;52.046;6.314;2022-12-18T02:19:38;24.27;;;14.43;;
10851;SDS011;5479;52.046;6.314;2022-12-18T02:22:18;22.83;;;13.50;;
10851;SDS011;5479;52.046;6.314;2022-12-18T02:24:59;22.33;;;14.53;;
10851;SDS011;5479;52.046;6.314;2022-12-18T02:27:40;23.77;;;13.50;;
10851;SDS011;5479;52.046;6.314;2022-12-18T02:30:12;23.40;;;14.00;;
10851;SDS011;5479;52.046;6.314;2022-12-18T02:32:43;24.27;;;14.17;;
10851;SDS011;5479;52.046;6.314;2022-12-18T02:35:16;22.37;;;13.50;;
10851;SDS011;5479;52.046;6.314;2022-12-18T02:37:48;22.07;;;13.23;;
10851;SDS011;5479;52.046;6.314;2022-12-18T02:40:16;23.83;;;14.17;;
10851;SDS011;5479;52.046;6.314;2022-12-18T02:42:50;22.77;;;13.23;;
10851;SDS011;5479;52.046;6.314;2022-12-18T02:45:18;23.63;;;13.20;;
10851;SDS011;5479;52.046;6.314;2022-12-18T02:47:47;22.43;;;13.13;;
10851;SDS011;5479;52.046;6.314;2022-12-18T02:50:18;22.77;;;13.70;;
10851;SDS011;5479;52.046;6.314;2022-12-18T02:52:55;20.07;;;13.10;;
10851;SDS011;5479;52.046;6.314;2022-12-18T02:55:35;23.33;;;13.13;;
10851;SDS011;5479;52.046;6.314;2022-12-18T02:58:17;21.83;;;12.83;;
10851;SDS011;5479;52.046;6.314;2022-12-18T03:00:48;19.87;;;12.73;;
10851;SDS011;5479;52.046;6.314;2022-12-18T03:03:22;22.67;;;13.67;;
10851;SDS011;5479;52.046;6.314;2022-12-18T03:05:57;21.67;;;12.10;;
10851;SDS011;5479;52.046;6.314;2022-12-18T03:08:32;20.33;;;12.67;;
10851;SDS011;5479;52.046;6.314;2022-12-18T03:11:05;18.23;;;12.53;;
10851;SDS011;5479;52.046;6.314;2022-12-18T03:13:39;21.33;;;12.60;;
10851;SDS011;5479;52.046;6.314;2022-12-18T03:16:11;16.70;;;11.07;;
10851;SDS011;5479;52.046;6.314;2022-12-18T03:18:45;19.23;;;12.10;;
10851;SDS011;5479;52.046;6.314;2022-12-18T03:21:16;21.60;;;12.17;;
10851;SDS011;5479;52.046;6.314;2022-12-18T03:23:49;17.93;;;11.80;;
10851;SDS011;5479;52.046;6.314;2022-12-18T03:26:20;19.07;;;10.27;;
10851;SDS011;5479;52.046;6.314;2022-12-18T03:28:56;17.60;;;11.50;;
10851;SDS011;5479;52.046;6.314;2022-12-18T03:31:28;20.50;;;12.37;;
10851;SDS011;5479;52.046;6.314;2022-12-18T03:34:00;20.60;;;11.40;;
10851;SDS011;5479;52.046;6.314;2022-12-18T03:36:32;19.40;;;11.57;;
10851;SDS011;5479;52.046;6.314;2022-12-18T03:39:00;18.70;;;11.40;;
10851;SDS011;5479;52.046;6.314;2022-12-18T03:41:29;20.13;;;11.97;;
10851;SDS011;5479;52.046;6.314;2022-12-18T03:44:03;21.50;;;13.17;;
10851;SDS011;5479;52.046;6.314;2022-12-18T03:46:39;20.43;;;12.47;;
10851;SDS011;5479;52.046;6.314;2022-12-18T03:49:15;19.00;;;10.97;;
10851;SDS011;5479;52.046;6.314;2022-12-18T03:51:52;18.90;;;12.07;;
10851;SDS011;5479;52.046;6.314;2022-12-18T03:54:24;18.83;;;11.03;;
10851;SDS011;5479;52.046;6.314;2022-12-18T03:56:58;18.73;;;11.50;;
10851;SDS011;5479;52.046;6.314;2022-12-18T03:59:33;18.47;;;10.80;;
10851;SDS011;5479;52.046;6.314;2022-12-18T04:02:03;17.80;;;11.03;;
10851;SDS011;5479;52.046;6.314;2022-12-18T04:04:33;16.60;;;11.27;;
10851;SDS011;5479;52.046;6.314;2022-12-18T04:07:02;19.07;;;11.67;;
10851;SDS011;5479;52.046;6.314;2022-12-18T04:09:32;15.67;;;10.10;;
10851;SDS011;5479;52.046;6.314;2022-12-18T04:12:01;19.60;;;11.03;;
10851;SDS011;5479;52.046;6.314;2022-12-18T04:14:30;19.20;;;11.63;;
10851;SDS011;5479;52.046;6.314;2022-12-18T04:17:03;17.97;;;11.20;;
10851;SDS011;5479;52.046;6.314;2022-12-18T04:19:31;18.07;;;11.50;;
10851;SDS011;5479;52.046;6.314;2022-12-18T04:21:59;22.17;;;12.23;;
10851;SDS011;5479;52.046;6.314;2022-12-18T04:24:27;17.27;;;10.87;;
10851;SDS011;5479;52.046;6.314;2022-12-18T04:26:54;18.70;;;11.30;;
10851;SDS011;5479;52.046;6.314;2022-12-18T04:29:22;20.03;;;11.53;;
10851;SDS011;5479;52.046;6.314;2022-12-18T04:31:50;19.23;;;11.27;;
10851;SDS011;5479;52.046;6.314;2022-12-18T04:34:22;15.93;;;11.00;;
10851;SDS011;5479;52.046;6.314;2022-12-18T04:36:51;20.00;;;11.63;;
10851;SDS011;5479;52.046;6.314;2022-12-18T04:39:18;21.83;;;11.87;;
10851;SDS011;5479;52.046;6.314;2022-12-18T04:41:47;19.73;;;11.20;;
10851;SDS011;5479;52.046;6.314;2022-12-18T04:44:15;18.67;;;11.50;;
10851;SDS011;5479;52.046;6.314;2022-12-18T04:46:43;19.23;;;10.63;;
10851;SDS011;5479;52.046;6.314;2022-12-18T04:49:11;16.80;;;10.70;;
10851;SDS011;5479;52.046;6.314;2022-12-18T04:51:40;23.27;;;11.00;;
10851;SDS011;5479;52.046;6.314;2022-12-18T04:54:08;18.97;;;10.80;;
10851;SDS011;5479;52.046;6.314;2022-12-18T04:56:36;16.67;;;9.97;;
10851;SDS011;5479;52.046;6.314;2022-12-18T04:59:04;17.87;;;10.70;;
10851;SDS011;5479;52.046;6.314;2022-12-18T05:01:32;17.83;;;10.73;;
10851;SDS011;5479;52.046;6.314;2022-12-18T05:04:00;16.87;;;10.80;;
10851;SDS011;5479;52.046;6.314;2022-12-18T05:06:28;18.30;;;10.50;;
10851;SDS011;5479;52.046;6.314;2022-12-18T05:08:58;18.57;;;10.00;;
10851;SDS011;5479;52.046;6.314;2022-12-18T05:11:26;14.83;;;9.37;;
10851;SDS011;5479;52.046;6.314;2022-12-18T05:13:54;16.63;;;9.63;;
10851;SDS011;5479;52.046;6.314;2022-12-18T05:16:23;15.13;;;9.23;;
10851;SDS011;5479;52.046;6.314;2022-12-18T05:18:51;18.07;;;9.77;;
10851;SDS011;5479;52.046;6.314;2022-12-18T05:21:20;14.87;;;9.93;;
10851;SDS011;5479;52.046;6.314;2022-12-18T05:23:49;15.43;;;9.70;;
10851;SDS011;5479;52.046;6.314;2022-12-18T05:26:19;18.27;;;9.97;;
10851;SDS011;5479;52.046;6.314;2022-12-18T05:28:47;16.47;;;10.33;;
10851;SDS011;5479;52.046;6.314;2022-12-18T05:31:15;15.73;;;9.53;;
10851;SDS011;5479;52.046;6.314;2022-12-18T05:33:45;18.60;;;9.97;;
10851;SDS011;5479;52.046;6.314;2022-12-18T05:36:13;16.17;;;10.27;;
10851;SDS011;5479;52.046;6.314;2022-12-18T05:38:41;15.37;;;9.50;;
10851;SDS011;5479;52.046;6.314;2022-12-18T05:41:10;14.93;;;9.07;;
10851;SDS011;5479;52.046;6.314;2022-12-18T05:43:39;16.80;;;9.70;;
10851;SDS011;5479;52.046;6.314;2022-12-18T05:46:08;16.03;;;9.67;;
10851;SDS011;5479;52.046;6.314;2022-12-18T05:48:39;16.73;;;9.40;;
10851;SDS011;5479;52.046;6.314;2022-12-18T05:51:09;14.93;;;9.23;;
10851;SDS011;5479;52.046;6.314;2022-12-18T05:53:38;14.57;;;9.47;;
10851;SDS011;5479;52.046;6.314;2022-12-18T05:56:07;15.57;;;9.93;;
10851;SDS011;5479;52.046;6.314;2022-12-18T05:58:38;15.63;;;9.73;;
10851;SDS011;5479;52.046;6.314;2022-12-18T06:01:08;17.20;;;9.70;;
10851;SDS011;5479;52.046;6.314;2022-12-18T06:03:38;16.30;;;9.37;;
10851;SDS011;5479;52.046;6.314;2022-12-18T06:06:12;14.77;;;9.03;;
10851;SDS011;5479;52.046;6.314;2022-12-18T06:08:43;15.90;;;9.47;;
10851;SDS011;5479;52.046;6.314;2022-12-18T06:11:11;14.77;;;9.90;;
10851;SDS011;5479;52.046;6.314;2022-12-18T06:13:40;16.30;;;9.13;;
10851;SDS011;5479;52.046;6.314;2022-12-18T06:16:08;16.90;;;9.83;;
10851;SDS011;5479;52.046;6.314;2022-12-18T06:18:36;16.03;;;9.33;;
10851;SDS011;5479;52.046;6.314;2022-12-18T06:21:05;15.10;;;9.70;;
10851;SDS011;5479;52.046;6.314;2022-12-18T06:23:33;15.83;;;9.63;;
10851;SDS011;5479;52.046;6.314;2022-12-18T06:26:03;18.23;;;10.03;;
10851;SDS011;5479;52.046;6.314;2022-12-18T06:28:31;17.87;;;9.93;;
10851;SDS011;5479;52.046;6.314;2022-12-18T06:31:01;17.43;;;10.23;;
10851;SDS011;5479;52.046;6.314;2022-12-18T06:33:29;15.27;;;9.40;;
10851;SDS011;5479;52.046;6.314;2022-12-18T06:35:59;16.30;;;9.67;;
10851;SDS011;5479;52.046;6.314;2022-12-18T06:38:28;15.00;;;9.70;;
10851;SDS011;5479;52.046;6.314;2022-12-18T06:40:56;14.77;;;9.10;;
10851;SDS011;5479;52.046;6.314;2022-12-18T06:43:24;16.57;;;9.17;;
10851;SDS011;5479;52.046;6.314;2022-12-18T06:45:57;15.73;;;10.00;;
10851;SDS011;5479;52.046;6.314;2022-12-18T06:48:27;14.00;;;8.80;;
10851;SDS011;5479;52.046;6.314;2022-12-18T06:50:55;14.13;;;8.50;;
10851;SDS011;5479;52.046;6.314;2022-12-18T06:53:23;14.47;;;9.03;;
10851;SDS011;5479;52.046;6.314;2022-12-18T06:55:50;16.37;;;9.83;;
10851;SDS011;5479;52.046;6.314;2022-12-18T06:58:18;12.97;;;9.13;;
10851;SDS011;5479;52.046;6.314;2022-12-18T07:00:46;17.37;;;9.47;;
10851;SDS011;5479;52.046;6.314;2022-12-18T07:03:15;13.73;;;8.87;;
10851;SDS011;5479;52.046;6.314;2022-12-18T07:05:46;16.13;;;9.30;;
10851;SDS011;5479;52.046;6.314;2022-12-18T07:08:14;15.33;;;9.00;;
10851;SDS011;5479;52.046;6.314;2022-12-18T07:10:43;15.00;;;9.83;;
10851;SDS011;5479;52.046;6.314;2022-12-18T07:13:11;14.60;;;9.00;;
10851;SDS011;5479;52.046;6.314;2022-12-18T07:15:39;14.53;;;9.63;;
10851;SDS011;5479;52.046;6.314;2022-12-18T07:18:07;14.50;;;9.00;;
10851;SDS011;5479;52.046;6.314;2022-12-18T07:20:35;14.53;;;9.17;;
10851;SDS011;5479;52.046;6.314;2022-12-18T07:23:05;14.27;;;8.77;;
10851;SDS011;5479;52.046;6.314;2022-12-18T07:25:33;16.50;;;9.60;;
10851;SDS011;5479;52.046;6.314;2022-12-18T07:28:02;17.03;;;10.67;;
10851;SDS011;5479;52.046;6.314;2022-12-18T07:30:30;17.17;;;10.43;;
10851;SDS011;5479;52.046;6.314;2022-12-18T07:32:58;14.73;;;9.73;;
10851;SDS011;5479;52.046;6.314;2022-12-18T07:35:26;13.27;;;8.43;;
10851;SDS011;5479;52.046;6.314;2022-12-18T07:37:54;13.43;;;9.10;;
10851;SDS011;5479;52.046;6.314;2022-12-18T07:40:23;15.93;;;9.10;;
10851;SDS011;5479;52.046;6.314;2022-12-18T07:42:51;12.97;;;8.50;;
10851;SDS011;5479;52.046;6.314;2022-12-18T07:45:19;13.83;;;8.57;;
10851;SDS011;5479;52.046;6.314;2022-12-18T07:47:47;16.77;;;9.37;;
10851;SDS011;5479;52.046;6.314;2022-12-18T07:50:15;14.20;;;8.63;;
10851;SDS011;5479;52.046;6.314;2022-12-18T07:52:44;12.97;;;8.47;;
10851;SDS011;5479;52.046;6.314;2022-12-18T07:55:13;14.50;;;8.80;;
10851;SDS011;5479;52.046;6.314;2022-12-18T07:57:45;12.73;;;8.53;;
10851;SDS011;5479;52.046;6.314;2022-12-18T08:00:14;14.23;;;8.50;;
10851;SDS011;5479;52.046;6.314;2022-12-18T08:02:43;13.63;;;8.17;;
10851;SDS011;5479;52.046;6.314;2022-12-18T08:05:11;15.70;;;9.10;;
10851;SDS011;5479;52.046;6.314;2022-12-18T08:07:39;15.37;;;9.60;;
10851;SDS011;5479;52.046;6.314;2022-12-18T08:10:07;13.80;;;8.40;;
10851;SDS011;5479;52.046;6.314;2022-12-18T08:12:38;12.50;;;8.37;;
10851;SDS011;5479;52.046;6.314;2022-12-18T08:15:08;12.13;;;8.07;;
10851;SDS011;5479;52.046;6.314;2022-12-18T08:17:36;11.80;;;7.73;;
10851;SDS011;5479;52.046;6.314;2022-12-18T08:20:04;12.47;;;8.13;;
10851;SDS011;5479;52.046;6.314;2022-12-18T08:22:33;12.17;;;7.67;;
10851;SDS011;5479;52.046;6.314;2022-12-18T08:25:02;10.97;;;7.30;;
10851;SDS011;5479;52.046;6.314;2022-12-18T08:27:31;12.60;;;8.07;;
10851;SDS011;5479;52.046;6.314;2022-12-18T08:30:02;11.07;;;7.63;;
10851;SDS011;5479;52.046;6.314;2022-12-18T08:32:32;10.80;;;7.00;;
10851;SDS011;5479;52.046;6.314;2022-12-18T08:35:00;12.00;;;7.60;;
10851;SDS011;5479;52.046;6.314;2022-12-18T08:37:28;12.17;;;6.93;;
10851;SDS011;5479;52.046;6.314;2022-12-18T08:39:55;11.03;;;7.50;;
10851;SDS011;5479;52.046;6.314;2022-12-18T08:42:23;12.43;;;7.47;;
10851;SDS011;5479;52.046;6.314;2022-12-18T08:45:09;10.83;;;7.00;;
10851;SDS011;5479;52.046;6.314;2022-12-18T08:47:39;12.70;;;7.70;;
10851;SDS011;5479;52.046;6.314;2022-12-18T08:50:07;10.40;;;6.77;;
10851;SDS011;5479;52.046;6.314;2022-12-18T08:52:37;10.53;;;6.73;;
10851;SDS011;5479;52.046;6.314;2022-12-18T08:55:05;9.63;;;6.93;;
10851;SDS011;5479;52.046;6.314;2022-12-18T08:57:34;10.70;;;7.13;;
10851;SDS011;5479;52.046;6.314;2022-12-18T09:00:03;10.33;;;6.90;;
10851;SDS011;5479;52.046;6.314;2022-12-18T09:02:32;10.53;;;6.23;;
10851;SDS011;5479;52.046;6.314;2022-12-18T09:05:01;11.60;;;6.93;;
10851;SDS011;5479;52.046;6.314;2022-12-18T09:07:30;11.07;;;7.10;;
10851;SDS011;5479;52.046;6.314;2022-12-18T09:09:58;11.30;;;6.50;;
10851;SDS011;5479;52.046;6.314;2022-12-18T09:12:26;10.00;;;7.10;;
10851;SDS011;5479;52.046;6.314;2022-12-18T09:14:57;10.23;;;6.47;;
10851;SDS011;5479;52.046;6.314;2022-12-18T09:17:25;12.53;;;6.23;;
10851;SDS011;5479;52.046;6.314;2022-12-18T09:19:53;10.67;;;6.83;;
10851;SDS011;5479;52.046;6.314;2022-12-18T09:22:22;10.10;;;6.77;;
10851;SDS011;5479;52.046;6.314;2022-12-18T09:24:58;10.37;;;6.80;;
10851;SDS011;5479;52.046;6.314;2022-12-18T09:27:26;10.87;;;6.20;;
10851;SDS011;5479;52.046;6.314;2022-12-18T09:29:54;9.57;;;6.57;;
10851;SDS011;5479;52.046;6.314;2022-12-18T09:32:22;10.07;;;6.23;;
10851;SDS011;5479;52.046;6.314;2022-12-18T09:34:50;10.23;;;6.70;;
10851;SDS011;5479;52.046;6.314;2022-12-18T09:37:27;9.30;;;6.17;;
10851;SDS011;5479;52.046;6.314;2022-12-18T09:39:55;8.57;;;6.37;;
10851;SDS011;5479;52.046;6.314;2022-12-18T09:42:25;8.73;;;6.17;;
10851;SDS011;5479;52.046;6.314;2022-12-18T09:44:53;9.33;;;6.40;;
10851;SDS011;5479;52.046;6.314;2022-12-18T09:47:23;9.20;;;6.20;;
10851;SDS011;5479;52.046;6.314;2022-12-18T09:49:54;10.03;;;6.07;;
10851;SDS011;5479;52.046;6.314;2022-12-18T09:52:27;9.80;;;6.00;;
10851;SDS011;5479;52.046;6.314;2022-12-18T09:54:58;9.33;;;6.07;;
10851;SDS011;5479;52.046;6.314;2022-12-18T09:57:29;10.50;;;5.90;;
10851;SDS011;5479;52.046;6.314;2022-12-18T10:00:03;8.90;;;5.70;;
10851;SDS011;5479;52.046;6.314;2022-12-18T10:02:36;9.37;;;6.57;;
10851;SDS011;5479;52.046;6.314;2022-12-18T10:05:09;8.47;;;5.70;;
10851;SDS011;5479;52.046;6.314;2022-12-18T10:07:49;8.47;;;5.57;;
10851;SDS011;5479;52.046;6.314;2022-12-18T10:10:27;9.13;;;5.53;;
10851;SDS011;5479;52.046;6.314;2022-12-18T10:13:08;8.73;;;5.80;;
10851;SDS011;5479;52.046;6.314;2022-12-18T10:15:47;8.73;;;5.40;;
10851;SDS011;5479;52.046;6.314;2022-12-18T10:18:54;8.33;;;5.93;;
10851;SDS011;5479;52.046;6.314;2022-12-18T10:21:30;8.63;;;5.27;;
10851;SDS011;5479;52.046;6.314;2022-12-18T10:24:04;9.17;;;5.90;;
10851;SDS011;5479;52.046;6.314;2022-12-18T10:26:44;9.83;;;5.93;;
10851;SDS011;5479;52.046;6.314;2022-12-18T10:29:21;8.33;;;5.03;;
10851;SDS011;5479;52.046;6.314;2022-12-18T10:31:49;8.47;;;5.50;;
10851;SDS011;5479;52.046;6.314;2022-12-18T10:34:17;8.40;;;5.43;;
10851;SDS011;5479;52.046;6.314;2022-12-18T10:36:46;8.83;;;5.53;;
10851;SDS011;5479;52.046;6.314;2022-12-18T10:39:18;8.47;;;5.50;;
10851;SDS011;5479;52.046;6.314;2022-12-18T10:41:48;8.77;;;5.40;;
10851;SDS011;5479;52.046;6.314;2022-12-18T10:44:17;10.13;;;5.90;;
10851;SDS011;5479;52.046;6.314;2022-12-18T10:46:48;8.90;;;5.60;;
10851;SDS011;5479;52.046;6.314;2022-12-18T10:49:18;9.10;;;6.23;;
10851;SDS011;5479;52.046;6.314;2022-12-18T10:51:51;9.43;;;5.83;;
10851;SDS011;5479;52.046;6.314;2022-12-18T10:54:34;9.93;;;6.00;;
10851;SDS011;5479;52.046;6.314;2022-12-18T10:57:16;8.17;;;5.23;;
10851;SDS011;5479;52.046;6.314;2022-12-18T10:59:58;8.83;;;5.50;;
10851;SDS011;5479;52.046;6.314;2022-12-18T11:02:33;8.03;;;5.40;;
10851;SDS011;5479;52.046;6.314;2022-12-18T11:07:50;8.23;;;5.07;;
10851;SDS011;5479;52.046;6.314;2022-12-18T11:10:25;8.10;;;5.53;;
10851;SDS011;5479;52.046;6.314;2022-12-18T11:13:08;9.03;;;5.47;;
10851;SDS011;5479;52.046;6.314;2022-12-18T11:15:40;8.10;;;5.53;;
10851;SDS011;5479;52.046;6.314;2022-12-18T11:18:15;8.70;;;5.17;;
10851;SDS011;5479;52.046;6.314;2022-12-18T11:20:50;7.83;;;5.20;;
10851;SDS011;5479;52.046;6.314;2022-12-18T11:23:20;8.70;;;5.50;;
10851;SDS011;5479;52.046;6.314;2022-12-18T11:25:52;7.60;;;5.00;;
10851;SDS011;5479;52.046;6.314;2022-12-18T11:28:35;9.23;;;5.57;;
10851;SDS011;5479;52.046;6.314;2022-12-18T11:31:09;8.17;;;5.40;;
10851;SDS011;5479;52.046;6.314;2022-12-18T11:33:44;8.00;;;5.47;;
10851;SDS011;5479;52.046;6.314;2022-12-18T11:36:17;7.70;;;5.13;;
10851;SDS011;5479;52.046;6.314;2022-12-18T11:38:46;8.93;;;5.57;;
10851;SDS011;5479;52.046;6.314;2022-12-18T11:41:21;8.07;;;5.30;;
10851;SDS011;5479;52.046;6.314;2022-12-18T11:44:14;9.10;;;5.60;;
10851;SDS011;5479;52.046;6.314;2022-12-18T11:46:51;9.40;;;5.20;;
10851;SDS011;5479;52.046;6.314;2022-12-18T11:49:25;8.60;;;5.63;;
10851;SDS011;5479;52.046;6.314;2022-12-18T11:51:58;7.87;;;5.27;;
10851;SDS011;5479;52.046;6.314;2022-12-18T11:54:29;8.17;;;5.50;;
10851;SDS011;5479;52.046;6.314;2022-12-18T11:57:03;10.43;;;5.93;;
10851;SDS011;5479;52.046;6.314;2022-12-18T11:59:42;8.27;;;5.70;;
10851;SDS011;5479;52.046;6.314;2022-12-18T12:02:24;7.90;;;5.10;;
10851;SDS011;5479;52.046;6.314;2022-12-18T12:05:16;8.37;;;5.23;;
10851;SDS011;5479;52.046;6.314;2022-12-18T12:07:54;7.70;;;5.30;;
10851;SDS011;5479;52.046;6.314;2022-12-18T12:10:33;7.63;;;5.17;;
10851;SDS011;5479;52.046;6.314;2022-12-18T12:13:18;7.80;;;5.20;;
10851;SDS011;5479;52.046;6.314;2022-12-18T12:15:56;8.53;;;5.27;;
10851;SDS011;5479;52.046;6.314;2022-12-18T12:18:35;7.37;;;5.20;;
10851;SDS011;5479;52.046;6.314;2022-12-18T12:21:16;8.73;;;5.33;;
10851;SDS011;5479;52.046;6.314;2022-12-18T12:23:50;7.97;;;5.10;;
10851;SDS011;5479;52.046;6.314;2022-12-18T12:26:26;9.73;;;5.97;;
10851;SDS011;5479;52.046;6.314;2022-12-18T12:29:06;9.13;;;5.40;;
10851;SDS011;5479;52.046;6.314;2022-12-18T12:31:52;7.83;;;5.47;;
10851;SDS011;5479;52.046;6.314;2022-12-18T12:34:30;8.57;;;5.37;;
10851;SDS011;5479;52.046;6.314;2022-12-18T12:37:07;9.40;;;5.23;;
10851;SDS011;5479;52.046;6.314;2022-12-18T12:39:44;7.20;;;5.20;;
10851;SDS011;5479;52.046;6.314;2022-12-18T12:42:15;9.10;;;5.83;;
10851;SDS011;5479;52.046;6.314;2022-12-18T12:45:14;9.27;;;5.17;;
10851;SDS011;5479;52.046;6.314;2022-12-18T12:47:46;8.10;;;5.20;;
10851;SDS011;5479;52.046;6.314;2022-12-18T12:50:18;7.73;;;5.30;;
10851;SDS011;5479;52.046;6.314;2022-12-18T12:52:48;8.60;;;5.33;;
10851;SDS011;5479;52.046;6.314;2022-12-18T12:55:20;8.33;;;5.53;;
10851;SDS011;5479;52.046;6.314;2022-12-18T12:57:54;7.87;;;5.17;;
10851;SDS011;5479;52.046;6.314;2022-12-18T13:00:31;7.67;;;5.40;;
10851;SDS011;5479;52.046;6.314;2022-12-18T13:03:06;8.30;;;5.37;;
10851;SDS011;5479;52.046;6.314;2022-12-18T13:05:40;8.57;;;5.50;;
10851;SDS011;5479;52.046;6.314;2022-12-18T13:08:21;7.97;;;5.20;;
10851;SDS011;5479;52.046;6.314;2022-12-18T13:10:52;7.87;;;5.70;;
10851;SDS011;5479;52.046;6.314;2022-12-18T13:13:50;9.17;;;5.53;;
10851;SDS011;5479;52.046;6.314;2022-12-18T13:16:20;8.53;;;5.43;;
10851;SDS011;5479;52.046;6.314;2022-12-18T13:18:50;9.10;;;5.33;;
10851;SDS011;5479;52.046;6.314;2022-12-18T13:21:21;10.07;;;5.50;;
10851;SDS011;5479;52.046;6.314;2022-12-18T13:23:50;8.30;;;5.57;;
10851;SDS011;5479;52.046;6.314;2022-12-18T13:26:29;8.33;;;5.63;;
10851;SDS011;5479;52.046;6.314;2022-12-18T13:28:59;7.97;;;5.60;;
10851;SDS011;5479;52.046;6.314;2022-12-18T13:34:36;10.03;;;5.30;;
10851;SDS011;5479;52.046;6.314;2022-12-18T13:43:23;8.40;;;6.07;;
10851;SDS011;5479;52.046;6.314;2022-12-18T13:46:05;10.10;;;6.93;;
10851;SDS011;5479;52.046;6.314;2022-12-18T13:48:49;9.77;;;7.20;;
10851;SDS011;5479;52.046;6.314;2022-12-18T13:51:21;10.77;;;6.70;;
10851;SDS011;5479;52.046;6.314;2022-12-18T13:53:50;10.33;;;7.37;;
10851;SDS011;5479;52.046;6.314;2022-12-18T13:56:22;10.33;;;7.27;;
10851;SDS011;5479;52.046;6.314;2022-12-18T14:02:11;12.17;;;6.40;;
10851;SDS011;5479;52.046;6.314;2022-12-18T14:04:44;9.00;;;5.80;;
10851;SDS011;5479;52.046;6.314;2022-12-18T14:07:15;8.97;;;6.17;;
10851;SDS011;5479;52.046;6.314;2022-12-18T14:09:46;8.83;;;6.10;;
10851;SDS011;5479;52.046;6.314;2022-12-18T14:12:19;8.90;;;5.57;;
10851;SDS011;5479;52.046;6.314;2022-12-18T14:15:11;8.27;;;5.77;;
10851;SDS011;5479;52.046;6.314;2022-12-18T14:17:50;6.97;;;5.23;;
10851;SDS011;5479;52.046;6.314;2022-12-18T14:20:19;8.13;;;5.27;;
10851;SDS011;5479;52.046;6.314;2022-12-18T14:22:49;8.63;;;5.77;;
10851;SDS011;5479;52.046;6.314;2022-12-18T14:25:18;9.20;;;5.63;;
10851;SDS011;5479;52.046;6.314;2022-12-18T14:27:49;8.33;;;5.60;;
10851;SDS011;5479;52.046;6.314;2022-12-18T14:30:25;7.77;;;5.67;;
10851;SDS011;5479;52.046;6.314;2022-12-18T14:33:01;8.47;;;5.70;;
10851;SDS011;5479;52.046;6.314;2022-12-18T14:35:33;8.53;;;5.50;;
10851;SDS011;5479;52.046;6.314;2022-12-18T14:38:19;8.17;;;5.47;;
10851;SDS011;5479;52.046;6.314;2022-12-18T14:40:53;8.40;;;5.67;;
10851;SDS011;5479;52.046;6.314;2022-12-18T14:43:23;7.63;;;5.27;;
10851;SDS011;5479;52.046;6.314;2022-12-18T14:45:51;7.77;;;5.47;;
10851;SDS011;5479;52.046;6.314;2022-12-18T14:48:20;8.13;;;5.90;;
10851;SDS011;5479;52.046;6.314;2022-12-18T14:51:03;7.97;;;5.50;;
10851;SDS011;5479;52.046;6.314;2022-12-18T14:53:37;7.93;;;5.60;;
10851;SDS011;5479;52.046;6.314;2022-12-18T14:56:14;9.50;;;5.33;;
10851;SDS011;5479;52.046;6.314;2022-12-18T14:58:48;8.13;;;5.50;;
10851;SDS011;5479;52.046;6.314;2022-12-18T15:01:19;8.43;;;5.80;;
10851;SDS011;5479;52.046;6.314;2022-12-18T15:03:49;9.40;;;5.47;;
10851;SDS011;5479;52.046;6.314;2022-12-18T15:06:21;9.90;;;6.13;;
10851;SDS011;5479;52.046;6.314;2022-12-18T15:08:54;7.70;;;5.37;;
10851;SDS011;5479;52.046;6.314;2022-12-18T15:11:26;8.57;;;5.80;;
10851;SDS011;5479;52.046;6.314;2022-12-18T15:14:23;8.57;;;5.90;;
10851;SDS011;5479;52.046;6.314;2022-12-18T15:16:57;8.20;;;5.53;;
10851;SDS011;5479;52.046;6.314;2022-12-18T15:19:32;8.63;;;5.77;;
10851;SDS011;5479;52.046;6.314;2022-12-18T15:22:02;9.00;;;5.60;;
10851;SDS011;5479;52.046;6.314;2022-12-18T15:24:32;8.47;;;5.70;;
10851;SDS011;5479;52.046;6.314;2022-12-18T15:27:00;9.70;;;6.80;;
10851;SDS011;5479;52.046;6.314;2022-12-18T15:29:28;12.07;;;7.97;;
10851;SDS011;5479;52.046;6.314;2022-12-18T15:32:01;10.47;;;6.33;;